WZZ73E LDRI-LEPA
Flight info
| Callsign | WZZ73E |
|---|---|
| Flight time | 1h 42m |
| Altitude | 30000 |
| Route | LDRI/32 PUL4L PUL DCT PAFFO DCT RIXOT RIXO2P LEPA/CDP/I24LZ |
| Aircraft | A320/M-SDE3FGHIRWY/LB1 |
Departure
| Time | 2026-04-25 12:02 |
|---|---|
| Airport | Rijeka Airport (LDRI) |
Arrival
| Time | 2026-04-25 13:44 |
|---|---|
| Airport | Palma de Mallorca Airport (LEPA) |
| Time | Latitude | Longitude | Altitude | Speed | Heading |
|---|---|---|---|---|---|
| 2026-04-25 11:38 | 45.21876 | 14.57186 | 268 ft | 0 kts | 104° |
| 2026-04-25 11:53 | 45.21879 | 14.57167 | 269 ft | 2 kts | 116° |
| 2026-04-25 11:53 | 45.21887 | 14.57146 | 269 ft | 2 kts | 85° |
| 2026-04-25 11:53 | 45.21886 | 14.57123 | 268 ft | 2 kts | 87° |
| 2026-04-25 11:54 | 45.21889 | 14.57100 | 268 ft | 2 kts | 136° |
| 2026-04-25 11:54 | 45.21891 | 14.57097 | 268 ft | 0 kts | 146° |
| 2026-04-25 11:58 | 45.21879 | 14.57109 | 268 ft | 6 kts | 145° |
| 2026-04-25 11:59 | 45.21839 | 14.57148 | 268 ft | 9 kts | 145° |
| 2026-04-25 11:59 | 45.21799 | 14.57188 | 268 ft | 6 kts | 147° |
| 2026-04-25 11:59 | 45.21742 | 14.57204 | 267 ft | 12 kts | 179° |
| 2026-04-25 12:00 | 45.21518 | 14.57237 | 266 ft | 19 kts | 143° |
| 2026-04-25 12:00 | 45.21399 | 14.57372 | 264 ft | 24 kts | 141° |
| 2026-04-25 12:00 | 45.21274 | 14.57485 | 262 ft | 4 kts | 291° |
| 2026-04-25 12:01 | 45.21294 | 14.57465 | 263 ft | 4 kts | 326° |
| 2026-04-25 12:01 | 45.21332 | 14.57429 | 264 ft | 24 kts | 325° |
| 2026-04-25 12:01 | 45.21739 | 14.57006 | 264 ft | 116 kts | 323° |
| 2026-04-25 12:01 | 45.22571 | 14.56143 | 409 ft | 168 kts | 324° |
| 2026-04-25 12:02 | 45.24458 | 14.54252 | 2254 ft | 165 kts | 324° |
| 2026-04-25 12:02 | 45.25440 | 14.53262 | 2741 ft | 180 kts | 324° |
| 2026-04-25 12:02 | 45.26487 | 14.52184 | 3233 ft | 192 kts | 322° |
| 2026-04-25 12:03 | 45.27601 | 14.51019 | 3725 ft | 209 kts | 322° |
| 2026-04-25 12:03 | 45.28832 | 14.49747 | 4220 ft | 233 kts | 316° |
| 2026-04-25 12:03 | 45.29899 | 14.47906 | 4775 ft | 253 kts | 295° |
| 2026-04-25 12:03 | 45.30406 | 14.45482 | 5614 ft | 259 kts | 272° |
| 2026-04-25 12:04 | 45.30217 | 14.42939 | 6627 ft | 262 kts | 252° |
| 2026-04-25 12:04 | 45.29351 | 14.40640 | 7544 ft | 270 kts | 231° |
| 2026-04-25 12:04 | 45.27864 | 14.38946 | 8404 ft | 280 kts | 208° |
| 2026-04-25 12:04 | 45.25955 | 14.38223 | 9268 ft | 291 kts | 186° |
| 2026-04-25 12:05 | 45.23909 | 14.38077 | 10147 ft | 297 kts | 184° |
| 2026-04-25 12:05 | 45.21832 | 14.37943 | 10966 ft | 301 kts | 184° |
| 2026-04-25 12:05 | 45.19727 | 14.37806 | 11808 ft | 304 kts | 184° |
| 2026-04-25 12:05 | 45.17594 | 14.37664 | 12628 ft | 309 kts | 184° |
| 2026-04-25 12:06 | 45.15403 | 14.37451 | 13099 ft | 326 kts | 190° |
| 2026-04-25 12:06 | 45.13182 | 14.36574 | 13353 ft | 344 kts | 205° |
| 2026-04-25 12:06 | 45.11093 | 14.34844 | 13845 ft | 351 kts | 219° |
| 2026-04-25 12:06 | 45.09364 | 14.32425 | 14051 ft | 352 kts | 235° |
| 2026-04-25 12:07 | 45.07978 | 14.29574 | 14814 ft | 351 kts | 237° |
| 2026-04-25 12:07 | 45.06582 | 14.26715 | 15565 ft | 353 kts | 237° |
| 2026-04-25 12:07 | 45.05171 | 14.23858 | 16274 ft | 356 kts | 236° |
| 2026-04-25 12:07 | 45.03745 | 14.20986 | 16972 ft | 358 kts | 236° |
| 2026-04-25 12:08 | 45.02306 | 14.18094 | 17673 ft | 361 kts | 236° |
| 2026-04-25 12:08 | 45.00856 | 14.15178 | 18365 ft | 364 kts | 236° |
| 2026-04-25 12:08 | 44.99392 | 14.12232 | 18981 ft | 367 kts | 236° |
| 2026-04-25 12:08 | 44.97922 | 14.09267 | 19608 ft | 370 kts | 236° |
| 2026-04-25 12:09 | 44.96437 | 14.06277 | 20240 ft | 373 kts | 236° |
| 2026-04-25 12:09 | 44.94937 | 14.03263 | 20859 ft | 376 kts | 236° |
| 2026-04-25 12:09 | 44.93426 | 14.00230 | 21444 ft | 379 kts | 236° |
| 2026-04-25 12:09 | 44.91907 | 13.97180 | 22008 ft | 382 kts | 237° |
| 2026-04-25 12:10 | 44.90392 | 13.94137 | 22551 ft | 385 kts | 236° |
| 2026-04-25 12:10 | 44.88900 | 13.90983 | 23108 ft | 388 kts | 242° |
| 2026-04-25 12:10 | 44.87577 | 13.87653 | 23657 ft | 391 kts | 242° |
| 2026-04-25 12:10 | 44.86246 | 13.84298 | 24127 ft | 393 kts | 242° |
| 2026-04-25 12:11 | 44.84902 | 13.80914 | 24594 ft | 396 kts | 242° |
| 2026-04-25 12:11 | 44.83554 | 13.77526 | 25075 ft | 398 kts | 242° |
| 2026-04-25 12:11 | 44.82190 | 13.74105 | 25540 ft | 400 kts | 242° |
| 2026-04-25 12:11 | 44.80820 | 13.70673 | 25992 ft | 403 kts | 242° |
| 2026-04-25 12:12 | 44.79456 | 13.67261 | 26436 ft | 406 kts | 242° |
| 2026-04-25 12:12 | 44.78515 | 13.64908 | 26735 ft | 407 kts | 242° |
| 2026-04-25 12:12 | 44.76656 | 13.60271 | 27306 ft | 411 kts | 241° |
| 2026-04-25 12:12 | 44.75245 | 13.56752 | 27720 ft | 414 kts | 241° |
| 2026-04-25 12:13 | 44.73840 | 13.53251 | 28131 ft | 417 kts | 241° |
| 2026-04-25 12:13 | 44.72403 | 13.49669 | 28555 ft | 420 kts | 241° |
| 2026-04-25 12:13 | 44.70956 | 13.46070 | 28982 ft | 423 kts | 241° |
| 2026-04-25 12:13 | 44.69513 | 13.42494 | 29405 ft | 426 kts | 241° |
| 2026-04-25 12:14 | 44.68039 | 13.38853 | 29825 ft | 429 kts | 241° |
| 2026-04-25 12:14 | 44.66556 | 13.35184 | 30045 ft | 430 kts | 241° |
| 2026-04-25 12:14 | 44.63658 | 13.28030 | 30070 ft | 418 kts | 241° |
| 2026-04-25 12:15 | 44.60781 | 13.20944 | 30066 ft | 417 kts | 241° |
| 2026-04-25 12:15 | 44.57912 | 13.13896 | 30070 ft | 418 kts | 240° |
| 2026-04-25 12:16 | 44.55029 | 13.06836 | 30070 ft | 418 kts | 240° |
| 2026-04-25 12:16 | 44.52132 | 12.99755 | 30070 ft | 418 kts | 240° |
| 2026-04-25 12:17 | 44.49226 | 12.92676 | 30071 ft | 418 kts | 240° |
| 2026-04-25 12:17 | 44.46331 | 12.85628 | 30067 ft | 418 kts | 240° |
| 2026-04-25 12:18 | 44.43426 | 12.78585 | 30063 ft | 418 kts | 240° |
| 2026-04-25 12:18 | 44.40514 | 12.71557 | 30065 ft | 419 kts | 240° |
| 2026-04-25 12:19 | 44.36135 | 12.61011 | 30071 ft | 419 kts | 240° |
| 2026-04-25 12:20 | 44.33220 | 12.54002 | 30073 ft | 419 kts | 240° |
| 2026-04-25 12:20 | 44.30286 | 12.46954 | 30059 ft | 419 kts | 240° |
| 2026-04-25 12:21 | 44.27356 | 12.39930 | 30072 ft | 419 kts | 240° |
| 2026-04-25 12:21 | 44.24423 | 12.32925 | 30081 ft | 419 kts | 240° |
| 2026-04-25 12:22 | 44.21460 | 12.25869 | 30087 ft | 419 kts | 240° |
| 2026-04-25 12:22 | 44.18511 | 12.18872 | 30100 ft | 420 kts | 240° |
| 2026-04-25 12:23 | 44.15560 | 12.11885 | 30066 ft | 420 kts | 240° |
| 2026-04-25 12:23 | 44.12594 | 12.04865 | 30058 ft | 420 kts | 240° |
| 2026-04-25 12:24 | 44.09642 | 11.97902 | 30069 ft | 419 kts | 240° |
| 2026-04-25 12:24 | 44.06683 | 11.90935 | 30069 ft | 418 kts | 240° |
| 2026-04-25 12:25 | 44.03709 | 11.83961 | 30072 ft | 418 kts | 240° |
| 2026-04-25 12:25 | 44.00751 | 11.77049 | 30075 ft | 418 kts | 240° |
| 2026-04-25 12:26 | 43.97764 | 11.70093 | 30081 ft | 418 kts | 240° |
| 2026-04-25 12:26 | 43.94806 | 11.63199 | 30083 ft | 417 kts | 240° |
| 2026-04-25 12:27 | 43.91837 | 11.56283 | 30098 ft | 417 kts | 240° |
| 2026-04-25 12:27 | 43.88853 | 11.49381 | 30098 ft | 416 kts | 240° |
| 2026-04-25 12:28 | 43.85890 | 11.42541 | 30093 ft | 416 kts | 240° |
| 2026-04-25 12:28 | 43.82910 | 11.35657 | 30080 ft | 417 kts | 239° |
| 2026-04-25 12:29 | 43.79924 | 11.28778 | 30093 ft | 417 kts | 240° |
| 2026-04-25 12:29 | 43.76931 | 11.21904 | 30115 ft | 417 kts | 240° |
| 2026-04-25 12:30 | 43.73936 | 11.15042 | 30108 ft | 417 kts | 239° |
| 2026-04-25 12:30 | 43.70938 | 11.08184 | 30087 ft | 417 kts | 240° |
| 2026-04-25 12:31 | 43.67930 | 11.01340 | 30095 ft | 417 kts | 239° |
| 2026-04-25 12:31 | 43.64919 | 10.94489 | 30091 ft | 417 kts | 240° |
| 2026-04-25 12:32 | 43.61920 | 10.87671 | 30096 ft | 418 kts | 239° |
| 2026-04-25 12:32 | 43.58888 | 10.80816 | 30101 ft | 418 kts | 239° |
| 2026-04-25 12:33 | 43.55864 | 10.73987 | 30114 ft | 418 kts | 240° |
| 2026-04-25 12:33 | 43.52816 | 10.67118 | 30112 ft | 419 kts | 239° |
| 2026-04-25 12:34 | 43.49783 | 10.60302 | 30102 ft | 419 kts | 239° |
| 2026-04-25 12:34 | 43.46746 | 10.53480 | 30114 ft | 420 kts | 239° |
| 2026-04-25 12:35 | 43.43675 | 10.46609 | 30116 ft | 420 kts | 239° |
| 2026-04-25 12:35 | 43.40632 | 10.39827 | 30133 ft | 420 kts | 239° |
| 2026-04-25 12:36 | 43.37556 | 10.32964 | 30126 ft | 420 kts | 239° |
| 2026-04-25 12:36 | 43.34481 | 10.26106 | 30116 ft | 421 kts | 238° |
| 2026-04-25 12:37 | 43.31401 | 10.19295 | 30121 ft | 422 kts | 238° |
| 2026-04-25 12:37 | 43.28307 | 10.12472 | 30123 ft | 423 kts | 238° |
| 2026-04-25 12:38 | 43.25186 | 10.05586 | 30112 ft | 423 kts | 238° |
| 2026-04-25 12:38 | 43.22085 | 9.98754 | 30118 ft | 424 kts | 238° |
| 2026-04-25 12:39 | 43.18955 | 9.91870 | 30122 ft | 424 kts | 238° |
| 2026-04-25 12:39 | 43.15834 | 9.85040 | 30110 ft | 425 kts | 238° |
| 2026-04-25 12:40 | 43.12684 | 9.78162 | 30119 ft | 425 kts | 238° |
| 2026-04-25 12:40 | 43.09548 | 9.71313 | 30133 ft | 425 kts | 238° |
| 2026-04-25 12:41 | 43.06395 | 9.64453 | 30136 ft | 425 kts | 238° |
| 2026-04-25 12:41 | 43.03237 | 9.57612 | 30127 ft | 426 kts | 238° |
| 2026-04-25 12:42 | 43.00088 | 9.50789 | 30126 ft | 426 kts | 238° |
| 2026-04-25 12:42 | 42.96907 | 9.43918 | 30128 ft | 427 kts | 238° |
| 2026-04-25 12:43 | 42.93743 | 9.37091 | 30128 ft | 427 kts | 238° |
| 2026-04-25 12:43 | 42.88964 | 9.26834 | 30127 ft | 427 kts | 238° |
| 2026-04-25 12:44 | 42.85773 | 9.19993 | 30122 ft | 427 kts | 238° |
| 2026-04-25 12:45 | 42.80993 | 9.09769 | 30109 ft | 428 kts | 237° |
| 2026-04-25 12:45 | 42.76185 | 8.99508 | 30111 ft | 429 kts | 237° |
| 2026-04-25 12:46 | 42.72953 | 8.92643 | 30105 ft | 430 kts | 237° |
| 2026-04-25 12:46 | 42.69710 | 8.85786 | 30100 ft | 430 kts | 237° |
| 2026-04-25 12:47 | 42.66472 | 8.78946 | 30094 ft | 430 kts | 237° |
| 2026-04-25 12:47 | 42.63778 | 8.73262 | 30094 ft | 431 kts | 237° |
| 2026-04-25 12:48 | 42.59990 | 8.65285 | 30097 ft | 432 kts | 237° |
| 2026-04-25 12:48 | 42.57276 | 8.59587 | 30106 ft | 433 kts | 237° |
| 2026-04-25 12:49 | 42.54003 | 8.52730 | 30093 ft | 433 kts | 237° |
| 2026-04-25 12:49 | 42.50723 | 8.45870 | 30098 ft | 433 kts | 237° |
| 2026-04-25 12:50 | 42.47439 | 8.39027 | 30111 ft | 433 kts | 237° |
| 2026-04-25 12:50 | 42.44153 | 8.32189 | 30116 ft | 433 kts | 237° |
| 2026-04-25 12:51 | 42.40879 | 8.25393 | 30107 ft | 434 kts | 237° |
| 2026-04-25 12:51 | 42.37571 | 8.18542 | 30124 ft | 434 kts | 237° |
| 2026-04-25 12:52 | 42.34259 | 8.11692 | 30124 ft | 434 kts | 237° |
| 2026-04-25 12:52 | 42.30945 | 8.04863 | 30122 ft | 435 kts | 237° |
| 2026-04-25 12:53 | 42.27631 | 7.98044 | 30129 ft | 436 kts | 237° |
| 2026-04-25 12:53 | 42.24284 | 7.91180 | 30132 ft | 437 kts | 237° |
| 2026-04-25 12:54 | 42.20960 | 7.84379 | 30138 ft | 437 kts | 237° |
| 2026-04-25 12:54 | 42.17606 | 7.77535 | 30138 ft | 437 kts | 237° |
| 2026-04-25 12:55 | 42.14795 | 7.71814 | 30137 ft | 437 kts | 237° |
| 2026-04-25 12:55 | 42.10896 | 7.63878 | 30137 ft | 437 kts | 236° |
| 2026-04-25 12:56 | 42.07447 | 7.57113 | 30129 ft | 437 kts | 234° |
| 2026-04-25 12:56 | 42.03801 | 7.50552 | 30140 ft | 438 kts | 233° |
| 2026-04-25 12:57 | 42.00111 | 7.44041 | 30137 ft | 438 kts | 233° |
| 2026-04-25 12:57 | 41.96449 | 7.37494 | 30137 ft | 437 kts | 233° |
| 2026-04-25 12:58 | 41.92806 | 7.30933 | 30139 ft | 438 kts | 233° |
| 2026-04-25 12:58 | 41.89184 | 7.24427 | 30139 ft | 438 kts | 233° |
| 2026-04-25 12:59 | 41.85529 | 7.17886 | 30141 ft | 438 kts | 233° |
| 2026-04-25 12:59 | 41.81867 | 7.11350 | 30116 ft | 439 kts | 233° |
| 2026-04-25 13:00 | 41.78792 | 7.05871 | 30120 ft | 439 kts | 233° |
| 2026-04-25 13:00 | 41.74527 | 6.98273 | 30129 ft | 439 kts | 233° |
| 2026-04-25 13:01 | 41.72687 | 6.94999 | 29987 ft | 439 kts | 233° |
| 2026-04-25 13:01 | 41.70848 | 6.91730 | 29966 ft | 439 kts | 233° |
| 2026-04-25 13:01 | 41.67162 | 6.85197 | 29967 ft | 439 kts | 233° |
| 2026-04-25 13:02 | 41.63469 | 6.78682 | 29859 ft | 439 kts | 233° |
| 2026-04-25 13:02 | 41.61626 | 6.75431 | 29749 ft | 437 kts | 233° |
| 2026-04-25 13:02 | 41.59832 | 6.72271 | 29631 ft | 427 kts | 233° |
| 2026-04-25 13:03 | 41.58061 | 6.69153 | 29524 ft | 418 kts | 233° |
| 2026-04-25 13:03 | 41.56309 | 6.66071 | 29411 ft | 415 kts | 233° |
| 2026-04-25 13:03 | 41.54561 | 6.63004 | 29300 ft | 414 kts | 233° |
| 2026-04-25 13:03 | 41.52820 | 6.59949 | 29185 ft | 413 kts | 233° |
| 2026-04-25 13:04 | 41.51081 | 6.56903 | 29077 ft | 412 kts | 233° |
| 2026-04-25 13:04 | 41.49343 | 6.53862 | 28970 ft | 412 kts | 233° |
| 2026-04-25 13:04 | 41.47609 | 6.50824 | 28861 ft | 411 kts | 233° |
| 2026-04-25 13:04 | 41.45879 | 6.47794 | 28740 ft | 410 kts | 233° |
| 2026-04-25 13:05 | 41.44147 | 6.44770 | 28634 ft | 409 kts | 233° |
| 2026-04-25 13:05 | 41.42422 | 6.41762 | 28528 ft | 408 kts | 233° |
| 2026-04-25 13:05 | 41.40699 | 6.38763 | 28420 ft | 407 kts | 233° |
| 2026-04-25 13:05 | 41.38976 | 6.35763 | 28313 ft | 407 kts | 233° |
| 2026-04-25 13:06 | 41.35543 | 6.29783 | 28105 ft | 406 kts | 233° |
| 2026-04-25 13:06 | 41.33829 | 6.26802 | 28002 ft | 405 kts | 233° |
| 2026-04-25 13:06 | 41.32113 | 6.23827 | 27893 ft | 405 kts | 233° |
| 2026-04-25 13:07 | 41.30395 | 6.20856 | 27792 ft | 404 kts | 233° |
| 2026-04-25 13:07 | 41.28683 | 6.17899 | 27685 ft | 404 kts | 233° |
| 2026-04-25 13:07 | 41.26972 | 6.14937 | 27587 ft | 403 kts | 233° |
| 2026-04-25 13:07 | 41.25267 | 6.11980 | 27482 ft | 402 kts | 233° |
| 2026-04-25 13:08 | 41.23585 | 6.09067 | 27379 ft | 402 kts | 233° |
| 2026-04-25 13:08 | 41.21885 | 6.06124 | 27271 ft | 401 kts | 233° |
| 2026-04-25 13:08 | 41.20182 | 6.03189 | 27165 ft | 401 kts | 233° |
| 2026-04-25 13:08 | 41.18472 | 6.00252 | 27068 ft | 400 kts | 233° |
| 2026-04-25 13:09 | 41.16769 | 5.97335 | 26960 ft | 400 kts | 233° |
| 2026-04-25 13:09 | 41.15065 | 5.94418 | 26862 ft | 399 kts | 233° |
| 2026-04-25 13:09 | 41.13370 | 5.91508 | 26771 ft | 398 kts | 233° |
| 2026-04-25 13:09 | 41.11677 | 5.88602 | 26695 ft | 398 kts | 233° |
| 2026-04-25 13:10 | 41.09982 | 5.85696 | 26617 ft | 398 kts | 233° |
| 2026-04-25 13:10 | 41.08287 | 5.82800 | 26542 ft | 397 kts | 233° |
| 2026-04-25 13:10 | 41.06594 | 5.79905 | 26476 ft | 397 kts | 233° |
| 2026-04-25 13:10 | 41.04903 | 5.77013 | 26396 ft | 397 kts | 233° |
| 2026-04-25 13:11 | 41.03232 | 5.74160 | 26327 ft | 396 kts | 233° |
| 2026-04-25 13:11 | 41.01543 | 5.71282 | 26251 ft | 396 kts | 233° |
| 2026-04-25 13:11 | 40.99853 | 5.68403 | 26169 ft | 395 kts | 233° |
| 2026-04-25 13:11 | 40.98164 | 5.65533 | 26097 ft | 395 kts | 233° |
| 2026-04-25 13:12 | 40.96479 | 5.62669 | 26023 ft | 395 kts | 233° |
| 2026-04-25 13:12 | 40.94791 | 5.59804 | 25949 ft | 394 kts | 233° |
| 2026-04-25 13:12 | 40.93107 | 5.56944 | 25876 ft | 394 kts | 233° |
| 2026-04-25 13:12 | 40.91994 | 5.55053 | 25827 ft | 394 kts | 233° |
| 2026-04-25 13:13 | 40.89743 | 5.51231 | 25729 ft | 393 kts | 233° |
| 2026-04-25 13:13 | 40.88064 | 5.48383 | 25654 ft | 393 kts | 233° |
| 2026-04-25 13:13 | 40.86386 | 5.45540 | 25581 ft | 392 kts | 233° |
| 2026-04-25 13:13 | 40.84703 | 5.42697 | 25505 ft | 392 kts | 233° |
| 2026-04-25 13:14 | 40.83023 | 5.39862 | 25438 ft | 392 kts | 233° |
| 2026-04-25 13:14 | 40.81348 | 5.37032 | 25362 ft | 391 kts | 233° |
| 2026-04-25 13:14 | 40.79665 | 5.34197 | 25290 ft | 391 kts | 233° |
| 2026-04-25 13:14 | 40.77991 | 5.31381 | 25212 ft | 389 kts | 233° |
| 2026-04-25 13:15 | 40.76321 | 5.28573 | 25139 ft | 388 kts | 233° |
| 2026-04-25 13:15 | 40.74652 | 5.25768 | 25068 ft | 388 kts | 233° |
| 2026-04-25 13:15 | 40.73010 | 5.23011 | 24988 ft | 387 kts | 233° |
| 2026-04-25 13:15 | 40.71344 | 5.20215 | 24890 ft | 387 kts | 233° |
| 2026-04-25 13:16 | 40.69680 | 5.17428 | 24802 ft | 386 kts | 233° |
| 2026-04-25 13:16 | 40.68013 | 5.14643 | 24707 ft | 386 kts | 232° |
| 2026-04-25 13:16 | 40.66354 | 5.11870 | 24614 ft | 385 kts | 232° |
| 2026-04-25 13:16 | 40.64693 | 5.09095 | 24520 ft | 385 kts | 233° |
| 2026-04-25 13:17 | 40.63037 | 5.06325 | 24426 ft | 384 kts | 233° |
| 2026-04-25 13:17 | 40.61382 | 5.03562 | 24334 ft | 384 kts | 232° |
| 2026-04-25 13:17 | 40.59729 | 5.00808 | 24242 ft | 383 kts | 232° |
| 2026-04-25 13:17 | 40.58077 | 4.98055 | 24150 ft | 383 kts | 232° |
| 2026-04-25 13:18 | 40.56425 | 4.95308 | 24052 ft | 382 kts | 232° |
| 2026-04-25 13:18 | 40.54776 | 4.92572 | 23957 ft | 381 kts | 232° |
| 2026-04-25 13:18 | 40.53135 | 4.89849 | 23866 ft | 380 kts | 232° |
| 2026-04-25 13:18 | 40.51516 | 4.87161 | 23775 ft | 379 kts | 232° |
| 2026-04-25 13:19 | 40.49878 | 4.84439 | 23680 ft | 379 kts | 232° |
| 2026-04-25 13:19 | 40.48243 | 4.81729 | 23489 ft | 378 kts | 232° |
| 2026-04-25 13:19 | 40.46612 | 4.79030 | 23113 ft | 376 kts | 232° |
| 2026-04-25 13:19 | 40.46063 | 4.78122 | 22992 ft | 375 kts | 232° |
| 2026-04-25 13:20 | 40.43379 | 4.73693 | 22372 ft | 371 kts | 232° |
| 2026-04-25 13:20 | 40.42319 | 4.71944 | 22133 ft | 369 kts | 232° |
| 2026-04-25 13:20 | 40.40184 | 4.68424 | 21660 ft | 367 kts | 232° |
| 2026-04-25 13:20 | 40.38598 | 4.65803 | 21329 ft | 365 kts | 232° |
| 2026-04-25 13:21 | 40.37074 | 4.63149 | 21001 ft | 363 kts | 234° |
| 2026-04-25 13:21 | 40.35622 | 4.60513 | 20672 ft | 361 kts | 235° |
| 2026-04-25 13:21 | 40.34172 | 4.57835 | 20362 ft | 359 kts | 235° |
| 2026-04-25 13:21 | 40.32730 | 4.55172 | 20041 ft | 357 kts | 234° |
| 2026-04-25 13:22 | 40.31287 | 4.52523 | 19726 ft | 356 kts | 234° |
| 2026-04-25 13:22 | 40.29846 | 4.49896 | 19417 ft | 354 kts | 233° |
| 2026-04-25 13:22 | 40.28404 | 4.47288 | 19110 ft | 352 kts | 233° |
| 2026-04-25 13:23 | 40.25529 | 4.42131 | 18504 ft | 349 kts | 233° |
| 2026-04-25 13:23 | 40.24102 | 4.39567 | 18172 ft | 347 kts | 233° |
| 2026-04-25 13:23 | 40.22681 | 4.37014 | 17823 ft | 346 kts | 233° |
| 2026-04-25 13:23 | 40.21283 | 4.34508 | 17485 ft | 345 kts | 233° |
| 2026-04-25 13:24 | 40.19873 | 4.31983 | 17140 ft | 343 kts | 233° |
| 2026-04-25 13:24 | 40.18466 | 4.29465 | 16818 ft | 342 kts | 233° |
| 2026-04-25 13:24 | 40.17064 | 4.26956 | 16490 ft | 341 kts | 233° |
| 2026-04-25 13:24 | 40.15669 | 4.24458 | 16159 ft | 340 kts | 234° |
| 2026-04-25 13:25 | 40.14276 | 4.21967 | 15838 ft | 339 kts | 234° |
| 2026-04-25 13:25 | 40.12887 | 4.19484 | 15522 ft | 338 kts | 234° |
| 2026-04-25 13:25 | 40.11500 | 4.17004 | 15203 ft | 337 kts | 234° |
| 2026-04-25 13:25 | 40.10117 | 4.14534 | 14891 ft | 336 kts | 234° |
| 2026-04-25 13:26 | 40.08736 | 4.12068 | 14581 ft | 335 kts | 234° |
| 2026-04-25 13:26 | 40.07356 | 4.09611 | 14270 ft | 334 kts | 234° |
| 2026-04-25 13:26 | 40.05980 | 4.07166 | 13962 ft | 333 kts | 234° |
| 2026-04-25 13:26 | 40.04609 | 4.04734 | 13623 ft | 331 kts | 234° |
| 2026-04-25 13:27 | 40.03251 | 4.02324 | 13288 ft | 327 kts | 234° |
| 2026-04-25 13:27 | 40.01932 | 3.99982 | 12946 ft | 320 kts | 234° |
| 2026-04-25 13:27 | 40.00630 | 3.97672 | 12612 ft | 314 kts | 234° |
| 2026-04-25 13:27 | 39.99338 | 3.95384 | 12281 ft | 312 kts | 234° |
| 2026-04-25 13:28 | 39.98055 | 3.93116 | 11954 ft | 307 kts | 234° |
| 2026-04-25 13:28 | 39.97627 | 3.92359 | 11857 ft | 307 kts | 234° |
| 2026-04-25 13:28 | 39.95849 | 3.88404 | 11360 ft | 304 kts | 249° |
| 2026-04-25 13:28 | 39.95056 | 3.85852 | 11141 ft | 304 kts | 249° |
| 2026-04-25 13:29 | 39.94277 | 3.83339 | 10913 ft | 294 kts | 249° |
| 2026-04-25 13:29 | 39.93521 | 3.80891 | 10708 ft | 289 kts | 248° |
| 2026-04-25 13:29 | 39.92783 | 3.78514 | 10485 ft | 279 kts | 249° |
| 2026-04-25 13:30 | 39.91336 | 3.73867 | 10061 ft | 276 kts | 249° |
| 2026-04-25 13:30 | 39.90627 | 3.71588 | 9841 ft | 274 kts | 248° |
| 2026-04-25 13:30 | 39.89914 | 3.69289 | 9595 ft | 273 kts | 248° |
| 2026-04-25 13:31 | 39.88488 | 3.64706 | 9134 ft | 282 kts | 248° |
| 2026-04-25 13:31 | 39.87735 | 3.62291 | 8912 ft | 292 kts | 248° |
| 2026-04-25 13:31 | 39.87218 | 3.60639 | 8755 ft | 292 kts | 248° |
| 2026-04-25 13:31 | 39.86210 | 3.57414 | 8453 ft | 286 kts | 248° |
| 2026-04-25 13:32 | 39.85464 | 3.55035 | 8227 ft | 281 kts | 248° |
| 2026-04-25 13:32 | 39.84730 | 3.52700 | 8002 ft | 276 kts | 248° |
| 2026-04-25 13:32 | 39.84011 | 3.50410 | 7772 ft | 271 kts | 248° |
| 2026-04-25 13:32 | 39.83304 | 3.48153 | 7556 ft | 268 kts | 248° |
| 2026-04-25 13:33 | 39.82604 | 3.45915 | 7334 ft | 266 kts | 248° |
| 2026-04-25 13:33 | 39.81910 | 3.43696 | 7118 ft | 264 kts | 248° |
| 2026-04-25 13:33 | 39.81218 | 3.41493 | 6900 ft | 263 kts | 248° |
| 2026-04-25 13:33 | 39.80993 | 3.40778 | 6831 ft | 263 kts | 248° |
| 2026-04-25 13:34 | 39.79847 | 3.37138 | 6466 ft | 261 kts | 248° |
| 2026-04-25 13:34 | 39.79158 | 3.34958 | 6234 ft | 260 kts | 248° |
| 2026-04-25 13:34 | 39.78469 | 3.32778 | 6007 ft | 262 kts | 247° |
| 2026-04-25 13:34 | 39.77751 | 3.30504 | 5783 ft | 278 kts | 247° |
| 2026-04-25 13:35 | 39.77018 | 3.28178 | 5558 ft | 276 kts | 248° |
| 2026-04-25 13:35 | 39.76299 | 3.25897 | 5332 ft | 271 kts | 247° |
| 2026-04-25 13:35 | 39.75593 | 3.23656 | 5105 ft | 262 kts | 247° |
| 2026-04-25 13:35 | 39.74915 | 3.21509 | 4886 ft | 253 kts | 247° |
| 2026-04-25 13:36 | 39.74255 | 3.19427 | 4648 ft | 247 kts | 246° |
| 2026-04-25 13:36 | 39.73820 | 3.18059 | 4508 ft | 247 kts | 246° |
| 2026-04-25 13:36 | 39.72932 | 3.15277 | 4203 ft | 259 kts | 246° |
| 2026-04-25 13:36 | 39.72250 | 3.13138 | 4058 ft | 250 kts | 247° |
| 2026-04-25 13:37 | 39.71661 | 3.11115 | 4027 ft | 231 kts | 250° |
| 2026-04-25 13:37 | 39.71267 | 3.09848 | 4039 ft | 215 kts | 243° |
| 2026-04-25 13:37 | 39.70586 | 3.08215 | 4040 ft | 200 kts | 238° |
| 2026-04-25 13:37 | 39.69911 | 3.06750 | 4054 ft | 177 kts | 238° |
| 2026-04-25 13:38 | 39.69301 | 3.05445 | 4039 ft | 162 kts | 237° |
| 2026-04-25 13:38 | 39.68691 | 3.04142 | 4054 ft | 181 kts | 238° |
| 2026-04-25 13:38 | 39.68015 | 3.02700 | 4043 ft | 194 kts | 238° |
| 2026-04-25 13:38 | 39.67310 | 3.01193 | 4037 ft | 195 kts | 238° |
| 2026-04-25 13:39 | 39.66602 | 2.99684 | 4018 ft | 195 kts | 238° |
| 2026-04-25 13:39 | 39.65893 | 2.98171 | 3855 ft | 198 kts | 238° |
| 2026-04-25 13:39 | 39.65183 | 2.96657 | 3601 ft | 194 kts | 238° |
| 2026-04-25 13:39 | 39.64493 | 2.95185 | 3378 ft | 187 kts | 238° |
| 2026-04-25 13:40 | 39.63832 | 2.93777 | 3124 ft | 180 kts | 238° |
| 2026-04-25 13:40 | 39.63183 | 2.92396 | 2896 ft | 178 kts | 237° |
| 2026-04-25 13:40 | 39.62547 | 2.91042 | 2647 ft | 173 kts | 237° |
| 2026-04-25 13:40 | 39.61921 | 2.89709 | 2408 ft | 172 kts | 237° |
| 2026-04-25 13:41 | 39.61299 | 2.88388 | 2188 ft | 170 kts | 236° |
| 2026-04-25 13:41 | 39.60721 | 2.87157 | 1961 ft | 150 kts | 236° |
| 2026-04-25 13:41 | 39.60189 | 2.86027 | 1762 ft | 143 kts | 237° |
| 2026-04-25 13:41 | 39.59685 | 2.84957 | 1562 ft | 139 kts | 236° |
| 2026-04-25 13:42 | 39.59179 | 2.83885 | 1400 ft | 139 kts | 237° |
| 2026-04-25 13:42 | 39.58680 | 2.82825 | 1222 ft | 137 kts | 237° |
| 2026-04-25 13:42 | 39.58190 | 2.81786 | 1034 ft | 133 kts | 236° |
| 2026-04-25 13:42 | 39.57711 | 2.80770 | 862 ft | 130 kts | 237° |
| 2026-04-25 13:43 | 39.57244 | 2.79780 | 679 ft | 128 kts | 237° |
| 2026-04-25 13:43 | 39.56782 | 2.78801 | 517 ft | 126 kts | 238° |
| 2026-04-25 13:43 | 39.56328 | 2.77833 | 367 ft | 126 kts | 239° |
| 2026-04-25 13:43 | 39.55877 | 2.76876 | 195 ft | 123 kts | 239° |
| 2026-04-25 13:44 | 39.55432 | 2.75938 | 44 ft | 121 kts | 239° |
| 2026-04-25 13:44 | 39.55065 | 2.75155 | 28 ft | 78 kts | 238° |
| 2026-04-25 13:44 | 39.54869 | 2.74746 | 29 ft | 29 kts | 246° |
| 2026-04-25 13:44 | 39.54846 | 2.74662 | 30 ft | 9 kts | 251° |
| 2026-04-25 13:45 | 39.54822 | 2.74556 | 31 ft | 14 kts | 258° |
| 2026-04-25 13:45 | 39.54803 | 2.74413 | 31 ft | 18 kts | 266° |
| 2026-04-25 13:45 | 39.54802 | 2.74237 | 32 ft | 21 kts | 269° |
| 2026-04-25 13:45 | 39.54765 | 2.74072 | 33 ft | 17 kts | 239° |
| 2026-04-25 13:46 | 39.54697 | 2.73931 | 34 ft | 20 kts | 238° |
| 2026-04-25 13:46 | 39.54621 | 2.73772 | 35 ft | 22 kts | 241° |
| 2026-04-25 13:46 | 39.54608 | 2.73618 | 36 ft | 13 kts | 331° |
| 2026-04-25 13:46 | 39.54687 | 2.73621 | 35 ft | 12 kts | 17° |
| 2026-04-25 13:47 | 39.54721 | 2.73679 | 35 ft | 0 kts | 62° |